Time;durP1;ratioP1;P1;durP2;ratioP2;P2;SDS_P1;SDS_P2;PMS_P1;PMS_P2;Temp;Humidity;BMP_temperature;BMP_pressure;BME280_temperature;BME280_humidity;BME280_pressure;Samples;Min_cycle;Max_cycle;Signal;HPM_P1;HPM_P2
2022/05/02 00:00:55;;;;;;;;;27.50;25.50;;;;;14.70;44.37;101393.31;5093371;27;44988;-82
2022/05/02 00:03:20;;;;;;;;;26.50;25.25;;;;;14.50;44.43;101357.47;5092533;27;45268;-83
2022/05/02 00:05:46;;;;;;;;;29.00;28.00;;;;;14.35;44.33;101334.09;5089353;28;45056;-88
2022/05/02 00:08:12;;;;;;;;;24.75;23.25;;;;;14.14;44.68;101292.97;5080335;28;45835;-88
2022/05/02 00:10:37;;;;;;;;;25.50;24.00;;;;;14.64;44.93;101380.81;5078718;28;45043;-91
2022/05/02 00:13:03;;;;;;;;;26.75;25.50;;;;;14.64;44.93;101380.81;5077473;28;45167;-87
2022/05/02 00:15:29;;;;;;;;;28.00;26.00;;;;;14.14;45.29;101286.81;5077256;28;45092;-94
2022/05/02 00:17:59;;;;;;;;;29.00;26.25;;;;;14.61;45.51;101375.44;5076350;28;45024;-92
2022/05/02 00:20:33;;;;;;;;;24.00;23.00;;;;;14.59;45.43;101371.88;5078413;28;45105;-89
2022/05/02 00:23:00;;;;;;;;;28.75;27.25;;;;;14.22;45.23;101308.16;5078887;28;45015;-89
2022/05/02 00:25:26;;;;;;;;;26.50;24.75;;;;;14.06;45.31;101280.38;5080972;28;45110;-93
2022/05/02 00:27:52;;;;;;;;;27.75;26.50;;;;;14.37;45.21;101335.91;5080633;28;45221;-88
2022/05/02 00:30:18;;;;;;;;;29.25;27.75;;;;;13.98;45.57;101268.69;5080078;28;44990;-89
2022/05/02 00:32:44;;;;;;;;;30.50;27.75;;;;;14.19;45.43;101308.97;5078055;28;45139;-87
2022/05/02 00:35:11;;;;;;;;;28.00;26.50;;;;;14.32;45.27;101345.47;5080351;28;45110;-94
2022/05/02 00:37:40;;;;;;;;;28.00;26.75;;;;;14.50;45.62;101357.47;5085144;28;45059;-91
2022/05/02 00:40:07;;;;;;;;;29.00;28.00;;;;;14.48;45.31;101359.16;5086764;27;45168;-89
2022/05/02 00:42:33;;;;;;;;;23.25;22.25;;;;;14.38;45.67;101344.75;5094618;28;44981;-85
2022/05/02 00:44:58;;;;;;;;;30.25;28.00;;;;;13.97;45.80;101272.19;5078473;28;45271;-81
2022/05/02 00:47:24;;;;;;;;;28.00;25.50;;;;;14.11;46.14;101297.28;5076428;28;45135;-83
2022/05/02 00:49:49;;;;;;;;;25.25;24.25;;;;;14.30;46.57;101331.31;5074652;28;45075;-80
2022/05/02 00:52:16;;;;;;;;;24.50;24.00;;;;;14.31;46.08;101329.56;5074974;28;45190;-84
2022/05/02 00:54:43;;;;;;;;;24.50;23.25;;;;;13.96;46.07;101271.28;5074504;28;45091;-83
2022/05/02 00:57:11;;;;;;;;;23.75;23.75;;;;;13.93;46.19;101269.44;5076585;28;45269;-78
2022/05/02 00:59:37;;;;;;;;;28.00;27.25;;;;;14.29;46.16;101332.19;5077369;28;45468;-78
2022/05/02 01:02:05;;;;;;;;;26.75;26.00;;;;;14.30;46.08;101327.78;5076200;28;45232;-81
2022/05/02 01:04:30;;;;;;;;;21.75;21.50;;;;;13.85;46.08;101257.78;5075576;28;44909;-89
2022/05/02 01:07:11;;;;;;;;;28.00;26.75;;;;;13.98;46.24;101272.22;5075830;28;45916;-78
2022/05/02 01:09:42;;;;;;;;;25.50;24.50;;;;;13.73;46.29;101225.69;5077408;28;45315;-81
2022/05/02 01:12:10;;;;;;;;;25.50;24.75;;;;;13.95;46.22;101266.88;5076452;28;45231;-91
2022/05/02 01:14:35;;;;;;;;;27.25;24.75;;;;;13.91;46.13;101260.59;5076200;28;45148;-88
2022/05/02 01:17:05;;;;;;;;;24.25;23.25;;;;;14.20;46.27;101303.72;5072929;28;45475;-91
2022/05/02 01:19:31;;;;;;;;;22.75;22.75;;;;;14.20;46.29;101316.03;5073616;28;45093;-88
2022/05/02 01:21:57;;;;;;;;;25.00;23.75;;;;;14.18;47.09;101312.44;5073913;28;44567;-90
2022/05/02 01:24:38;;;;;;;;;28.25;25.75;;;;;13.98;46.69;101285.44;5073546;28;45264;-84
2022/05/02 01:27:05;;;;;;;;;27.00;25.25;;;;;14.10;46.73;101306.06;5073120;28;45868;-93
2022/05/02 01:29:32;;;;;;;;;6.50;6.00;;;;;13.68;46.71;101237.88;5073234;28;45096;-92
2022/05/02 01:31:58;;;;;;;;;25.25;23.25;;;;;13.68;46.45;101243.16;5073386;28;45185;-87
2022/05/02 01:34:24;;;;;;;;;24.25;23.50;;;;;13.50;46.63;101214.47;5073564;28;45177;-85
2022/05/02 01:36:49;;;;;;;;;27.50;23.50;;;;;14.02;46.57;101308.47;5073625;28;45566;-91
2022/05/02 01:39:15;;;;;;;;;23.50;22.75;;;;;13.55;46.92;101230.44;5073124;28;44903;-89
2022/05/02 01:41:40;;;;;;;;;21.50;19.50;;;;;13.46;46.68;101223.13;5073060;28;45056;-90
2022/05/02 01:44:06;;;;;;;;;20.50;19.00;;;;;13.50;47.38;101232.06;5073379;28;45269;-93
2022/05/02 01:46:31;;;;;;;;;20.00;19.50;;;;;13.96;47.47;101312.69;5072263;28;45033;-94
2022/05/02 01:48:58;;;;;;;;;24.33;23.33;;;;;13.46;47.56;101231.06;5072295;28;45182;-82
2022/05/02 01:51:24;;;;;;;;;22.00;22.00;;;;;13.92;47.55;101327.53;5073079;28;45135;-79
2022/05/02 01:53:49;;;;;;;;;19.00;19.00;;;;;13.40;47.75;101237.06;5072907;28;45154;-87
2022/05/02 01:56:14;;;;;;;;;22.00;21.50;;;;;13.86;47.81;101314.16;5073220;28;45506;-89
2022/05/02 01:58:40;;;;;;;;;23.00;22.75;;;;;13.25;47.71;101209.25;5072266;28;45127;-80
2022/05/02 02:01:05;;;;;;;;;23.75;22.25;;;;;13.28;48.03;101236.66;5071701;28;45224;-78
2022/05/02 02:03:31;;;;;;;;;24.75;22.50;;;;;13.37;48.11;101257.16;5071906;28;45076;-80
2022/05/02 02:05:58;;;;;;;;;21.25;20.50;;;;;13.57;48.01;101297.41;5086225;27;45647;-76
2022/05/02 02:08:32;;;;;;;;;21.75;20.75;;;;;13.68;48.52;101322.41;5092359;27;44997;-88
2022/05/02 02:11:01;;;;;;;;;20.50;19.50;;;;;13.63;48.61;101321.34;5092460;27;45134;-79
2022/05/02 02:13:27;;;;;;;;;21.00;20.50;;;;;13.13;48.71;101236.13;5092269;27;44985;-80
2022/05/02 02:15:53;;;;;;;;;19.50;19.50;;;;;13.05;49.05;101228.00;5092096;28;45501;-88
2022/05/02 02:18:19;;;;;;;;;21.75;21.00;;;;;13.21;48.83;101249.59;5092112;27;45242;-79
2022/05/02 02:20:47;;;;;;;;;22.50;20.50;;;;;12.98;49.02;101212.78;5090033;27;45114;-78
2022/05/02 02:23:14;;;;;;;;;20.50;19.25;;;;;13.16;49.15;101249.44;5092152;27;45080;-85
2022/05/02 02:25:40;;;;;;;;;19.00;18.00;;;;;12.97;49.13;101225.94;5092254;27;45252;-80
2022/05/02 02:28:06;;;;;;;;;21.50;20.00;;;;;13.52;49.27;101310.47;5093462;27;45156;-88
2022/05/02 02:30:31;;;;;;;;;20.25;19.25;;;;;12.84;48.90;101200.88;5096233;27;45456;-93
2022/05/02 02:32:58;;;;;;;;;20.00;17.75;;;;;13.16;49.27;101247.69;5096743;27;45269;-88
2022/05/02 02:35:23;;;;;;;;;21.00;21.00;;;;;13.04;49.58;101228.81;5095378;27;47091;-93
2022/05/02 02:37:49;;;;;;;;;17.25;16.50;;;;;12.97;49.38;101216.28;5096876;27;45004;-93
2022/05/02 02:40:16;;;;;;;;;18.75;17.50;;;;;13.43;49.81;101305.78;5097027;28;45047;-94
2022/05/02 02:42:41;;;;;;;;;22.00;21.25;;;;;13.42;49.83;101301.34;5094743;27;45090;-93
2022/05/02 02:45:08;;;;;;;;;23.75;21.00;;;;;13.06;49.77;101236.81;5096493;28;46196;-95
2022/05/02 02:47:33;;;;;;;;;19.25;19.25;;;;;12.93;49.95;101224.94;5096456;27;45149;-94
2022/05/02 02:49:58;;;;;;;;;22.00;20.25;;;;;12.98;49.74;101236.53;5096415;27;45187;-93
2022/05/02 02:52:24;;;;;;;;;15.50;14.50;;;;;13.36;49.85;101298.53;5096505;27;45167;-94
2022/05/02 02:54:51;;;;;;;;;21.25;20.75;;;;;12.95;49.71;101236.41;5096250;28;45619;-91
2022/05/02 02:57:17;;;;;;;;;21.00;19.75;;;;;13.32;50.53;101295.72;5093787;27;45501;-94
2022/05/02 02:59:43;;;;;;;;;21.00;19.50;;;;;12.91;50.63;101224.00;5089943;27;45261;-95
2022/05/02 03:02:09;;;;;;;;;22.75;22.25;;;;;13.08;50.31;101262.38;5091782;28;45392;-93
2022/05/02 03:07:27;;;;;;;;;19.50;18.50;;;;;12.84;50.08;101217.59;5085226;27;45227;-94
2022/05/02 03:09:53;;;;;;;;;21.00;19.75;;;;;13.22;50.08;101288.38;5097182;28;44967;-94
2022/05/02 03:12:20;;;;;;;;;20.00;19.25;;;;;12.64;50.33;101197.59;5095713;27;45012;-94
2022/05/02 03:14:45;;;;;;;;;23.00;21.00;;;;;12.68;50.46;101210.03;5095793;27;46362;-94
2022/05/02 03:17:11;;;;;;;;;18.50;17.25;;;;;13.06;50.40;101266.72;5096522;27;44897;-94
2022/05/02 03:19:37;;;;;;;;;21.75;21.00;;;;;13.17;50.38;101272.34;5094712;28;45165;-94
2022/05/02 03:22:03;;;;;;;;;21.50;19.50;;;;;12.80;50.60;101231.53;5096195;27;45475;-94
2022/05/02 03:24:28;;;;;;;;;22.50;21.00;;;;;12.84;50.58;101217.59;5095686;27;46384;-95
2022/05/02 03:26:54;;;;;;;;;25.00;23.00;;;;;12.61;50.67;101187.84;5096279;27;44875;-95
2022/05/02 03:29:19;;;;;;;;;23.00;22.75;;;;;12.61;51.13;101186.94;5096170;27;44849;-88
2022/05/02 03:31:45;;;;;;;;;21.00;19.50;;;;;13.08;51.00;101270.28;5093816;28;44909;-92
2022/05/02 03:34:10;;;;;;;;;24.25;22.25;;;;;12.65;51.34;101202.03;5089192;27;45478;-79
2022/05/02 03:36:35;;;;;;;;;21.00;21.00;;;;;12.99;51.60;101267.34;5093415;28;45027;-83
2022/05/02 03:39:02;;;;;;;;;21.00;19.33;;;;;12.55;51.65;101198.19;5094508;27;45074;-78
2022/05/02 03:41:27;;;;;;;;;21.00;19.75;;;;;12.54;51.73;101206.94;5110481;27;45240;-93
2022/05/02 03:43:53;;;;;;;;;22.25;21.75;;;;;12.59;51.74;101226.44;5094599;27;45076;-83
2022/05/02 03:46:18;;;;;;;;;22.25;19.50;;;;;12.53;52.23;101215.69;5094271;27;45197;-90
2022/05/02 03:48:44;;;;;;;;;21.00;20.50;;;;;12.33;52.65;101175.47;5094724;27;45087;-75
2022/05/02 03:51:10;;;;;;;;;25.75;22.00;;;;;12.25;52.63;101174.31;5092957;27;44985;-91
2022/05/02 03:53:36;;;;;;;;;24.50;23.00;;;;;12.17;52.85;101175.81;5094655;28;45088;-90
2022/05/02 03:56:01;;;;;;;;;20.50;20.00;;;;;12.25;52.86;101190.13;5094485;27;45601;-87
2022/05/02 03:58:26;;;;;;;;;26.00;21.00;;;;;12.21;52.87;101192.59;5094718;28;45020;-79
2022/05/02 04:00:52;;;;;;;;;24.00;20.33;;;;;12.51;52.81;101266.56;5094808;28;44909;-76
2022/05/02 04:03:17;;;;;;;;;24.00;20.50;;;;;12.52;53.36;101265.75;5093805;28;45516;-77
2022/05/02 04:05:42;;;;;;;;;27.25;25.75;;;;;12.47;53.48;101264.69;5094510;27;45081;-86
2022/05/02 04:08:08;;;;;;;;;22.00;22.00;;;;;12.05;53.74;101206.97;5093087;28;45162;-76
2022/05/02 04:10:33;;;;;;;;;19.00;18.50;;;;;11.85;53.25;101158.84;5094361;28;45071;-94
2022/05/02 04:12:58;;;;;;;;;19.00;19.00;;;;;12.00;53.75;101187.47;5095506;28;45227;-93
2022/05/02 04:15:24;;;;;;;;;28.33;23.67;;;;;12.37;53.70;101259.09;5089248;28;44916;-94
2022/05/02 04:17:49;;;;;;;;;22.75;21.50;;;;;12.37;53.64;101261.72;5076830;27;45071;-94
2022/05/02 04:20:15;;;;;;;;;24.00;23.75;;;;;12.37;53.80;101261.72;5074763;28;44893;-93
2022/05/02 04:22:41;;;;;;;;;22.00;19.75;;;;;11.94;53.99;101196.06;5074483;28;44953;-91
2022/05/02 04:25:07;;;;;;;;;22.25;21.50;;;;;11.90;54.12;101198.50;5074390;28;45513;-93
2022/05/02 04:27:33;;;;;;;;;25.25;23.00;;;;;11.96;53.98;101210.16;5074353;27;45220;-90
2022/05/02 04:29:58;;;;;;;;;22.25;20.75;;;;;11.89;54.35;101218.69;5079164;27;45066;-94
2022/05/02 04:32:24;;;;;;;;;32.50;28.00;;;;;12.18;53.87;101259.28;5078344;28;45426;-94
2022/05/02 04:34:49;;;;;;;;;28.00;25.00;;;;;12.28;53.66;101269.31;5079488;27;45331;-82
2022/05/02 04:37:14;;;;;;;;;25.00;23.00;;;;;12.31;53.98;101264.13;5077350;28;45268;-92
2022/05/02 04:39:40;;;;;;;;;27.67;23.67;;;;;12.09;53.77;101222.94;5071940;27;45331;-90
2022/05/02 04:42:06;;;;;;;;;29.50;27.50;;;;;11.91;53.88;101190.66;5075649;27;45638;-94
2022/05/02 04:44:32;;;;;;;;;25.25;24.00;;;;;12.21;54.40;101242.66;5080698;28;45722;-91
2022/05/02 04:46:58;;;;;;;;;22.75;21.25;;;;;12.23;54.45;101267.34;5086720;27;45232;-86
2022/05/02 04:49:23;;;;;;;;;27.75;26.25;;;;;11.76;54.50;101177.78;5081646;27;45234;-93
2022/05/02 04:51:48;;;;;;;;;29.25;27.00;;;;;12.16;54.01;101253.03;5075550;27;45454;-93
2022/05/02 04:54:14;;;;;;;;;29.67;28.33;;;;;11.81;54.10;101172.69;5080514;27;45376;-94
2022/05/02 04:56:39;;;;;;;;;25.50;24.00;;;;;12.35;54.25;101266.03;5063135;28;46686;-86
2022/05/02 04:59:04;;;;;;;;;23.33;22.33;;;;;12.02;53.59;101199.88;5069062;28;45294;-95
2022/05/02 05:01:30;;;;;;;;;27.00;25.00;;;;;11.96;53.54;101196.09;5078716;28;48766;-88
2022/05/02 05:03:55;;;;;;;;;31.75;30.50;;;;;12.49;53.58;101270.91;5073260;28;45077;-90
2022/05/02 05:06:21;;;;;;;;;25.75;25.50;;;;;12.34;53.67;101242.25;5071399;28;45261;-93
2022/05/02 05:08:46;;;;;;;;;26.00;24.00;;;;;11.97;53.45;101168.91;5080474;27;45329;-92
2022/05/02 05:11:30;;;;;;;;;27.50;27.00;;;;;12.55;53.34;101264.09;5076734;28;45958;-92
2022/05/02 05:17:07;;;;;;;;;28.25;25.25;;;;;12.56;53.28;101262.34;5069758;27;45536;-91
2022/05/02 05:20:03;;;;;;;;;24.00;23.25;;;;;12.06;53.35;101174.50;5094553;27;45003;-93
2022/05/02 05:23:13;;;;;;;;;25.25;25.00;;;;;12.48;53.77;101250.66;5089043;27;45517;-89
2022/05/02 05:26:05;;;;;;;;;28.25;24.50;;;;;12.06;53.31;101169.22;5012443;28;45604;-92
2022/05/02 05:28:59;;;;;;;;;30.75;29.75;;;;;12.64;53.34;101266.16;5071299;27;45198;-91
2022/05/02 05:31:27;;;;;;;;;27.50;25.00;;;;;12.65;53.22;101267.94;5070972;28;44995;-91
2022/05/02 05:34:35;;;;;;;;;28.25;26.25;;;;;12.38;53.62;101216.06;5071349;28;45257;-92
2022/05/02 05:37:06;;;;;;;;;38.25;32.00;;;;;12.68;53.34;101262.78;5064114;28;45112;-94
2022/05/02 05:39:44;;;;;;;;;24.75;24.75;;;;;12.15;53.36;101172.19;5072508;28;45164;-93
2022/05/02 05:42:21;;;;;;;;;28.50;26.50;;;;;12.32;53.52;101189.50;5071924;28;45182;-93
2022/05/02 05:45:04;;;;;;;;;28.00;26.00;;;;;12.70;53.54;101258.44;5087452;28;47179;-92
2022/05/02 05:47:36;;;;;;;;;28.00;27.50;;;;;12.40;53.66;101211.72;5084924;27;45380;-86
2022/05/02 05:50:10;;;;;;;;;28.75;27.50;;;;;12.81;53.23;101265.00;5091224;27;45453;-93
2022/05/02 05:52:44;;;;;;;;;32.25;28.00;;;;;12.82;53.13;101273.81;5090777;27;45322;-94
2022/05/02 05:55:21;;;;;;;;;30.75;28.25;;;;;12.32;53.72;101178.06;5091569;28;45501;-93
2022/05/02 05:58:06;;;;;;;;;26.25;26.25;;;;;12.49;53.63;101213.78;5093942;27;45157;-90
2022/05/02 06:00:36;;;;;;;;;33.50;31.25;;;;;12.49;53.53;101208.53;5087198;27;45511;-92
2022/05/02 06:03:15;;;;;;;;;31.00;28.75;;;;;12.26;53.32;101162.91;5075036;27;45303;-94
2022/05/02 06:05:44;;;;;;;;;30.75;28.50;;;;;12.84;53.25;101265.09;5074930;27;45556;-93
2022/05/02 06:08:13;;;;;;;;;33.75;30.00;;;;;12.30;53.35;101163.91;5075378;27;45551;-88
2022/05/02 06:10:41;;;;;;;;;30.75;29.50;;;;;12.51;53.45;101201.59;5075364;28;45479;-93
2022/05/02 06:13:08;;;;;;;;;34.75;32.75;;;;;12.88;53.49;101267.00;5074868;27;45488;-93
2022/05/02 06:18:30;;;;;;;;;31.75;29.50;;;;;12.50;53.73;101191.84;5074362;27;45244;-92
2022/05/02 06:20:59;;;;;;;;;30.25;29.50;;;;;13.00;53.72;101276.16;5074473;27;45575;-92
2022/05/02 06:23:27;;;;;;;;;30.00;29.00;;;;;12.64;53.61;101206.41;5074611;27;45298;-93
2022/05/02 06:25:55;;;;;;;;;31.00;27.75;;;;;13.07;53.89;101281.69;5074316;27;45541;-93
2022/05/02 06:28:26;;;;;;;;;35.00;30.75;;;;;12.53;53.29;101178.78;5074594;27;45485;-93
2022/05/02 06:30:55;;;;;;;;;36.00;32.00;;;;;12.66;53.26;101195.94;5074427;27;45536;-94
2022/05/02 06:33:23;;;;;;;;;35.25;31.00;;;;;13.10;53.13;101258.06;5074765;27;45427;-93
2022/05/02 06:36:22;;;;;;;;;33.00;31.00;;;;;13.21;53.41;101271.59;5073627;27;46223;-91
2022/05/02 06:39:16;;;;;;;;;35.00;32.00;;;;;13.27;53.24;101269.19;5074752;27;45591;-90
2022/05/02 06:42:05;;;;;;;;;35.50;32.00;;;;;13.31;53.10;101271.09;5074409;28;45413;-91
2022/05/02 06:44:50;;;;;;;;;33.75;32.25;;;;;12.84;52.73;101185.06;5073903;27;45593;-91
2022/05/02 06:47:29;;;;;;;;;38.00;33.00;;;;;13.39;53.03;101280.13;5074082;28;45440;-94
2022/05/02 06:49:57;;;;;;;;;34.25;30.75;;;;;13.45;52.86;101270.59;5073801;27;45520;-91
2022/05/02 06:52:32;;;;;;;;;42.50;37.00;;;;;13.47;52.58;101280.38;5073943;27;45393;-90
2022/05/02 06:55:20;;;;;;;;;43.00;35.00;;;;;12.98;52.44;101185.50;5074260;28;45678;-93
2022/05/02 06:58:16;;;;;;;;;39.50;34.25;;;;;13.07;52.92;101191.97;5073731;27;46308;-75
2022/05/02 07:00:57;;;;;;;;;37.25;33.25;;;;;13.10;52.82;101177.97;5072798;28;45883;-78
2022/05/02 07:04:04;;;;;;;;;36.50;34.00;;;;;13.72;52.50;101275.84;5073116;27;45470;-78
2022/05/02 07:06:42;;;;;;;;;45.00;37.00;;;;;13.76;52.30;101281.28;5065059;27;45338;-75
2022/05/02 07:09:13;;;;;;;;;38.75;34.50;;;;;13.79;52.20;101272.53;5072633;27;46285;-77
2022/05/02 07:12:02;;;;;;;;;43.50;36.50;;;;;13.28;52.50;101178.56;5074369;28;45465;-93
2022/05/02 07:14:39;;;;;;;;;41.75;36.00;;;;;13.91;52.31;101278.19;5074827;27;45281;-90
2022/05/02 07:17:11;;;;;;;;;42.50;35.25;;;;;13.87;52.21;101257.81;5077615;27;45535;-92
2022/05/02 07:20:09;;;;;;;;;40.75;35.00;;;;;13.70;52.17;101207.13;5076716;27;46318;-93
2022/05/02 07:22:37;;;;;;;;;46.75;38.25;;;;;14.15;51.76;101270.09;5077305;27;45323;-92
2022/05/02 07:25:08;;;;;;;;;45.00;36.75;;;;;14.22;51.42;101269.38;5077367;27;45508;-92
2022/05/02 07:27:53;;;;;;;;;39.00;35.50;;;;;14.30;51.36;101265.22;5077115;27;45519;-93
2022/05/02 07:30:22;;;;;;;;;47.75;37.25;;;;;14.24;51.37;101243.91;5077370;27;45501;-93
2022/05/02 07:32:50;;;;;;;;;47.75;39.25;;;;;13.97;51.08;101179.69;5077388;28;45515;-92
2022/05/02 07:35:16;;;;;;;;;45.75;38.00;;;;;14.09;50.51;101196.78;5077377;27;45401;-92
2022/05/02 07:37:43;;;;;;;;;47.50;37.50;;;;;14.05;50.28;101178.16;5078180;27;45414;-94
2022/05/02 07:40:12;;;;;;;;;47.25;39.00;;;;;14.32;50.01;101226.47;5077228;27;46185;-90
2022/05/02 07:42:40;;;;;;;;;51.50;42.00;;;;;14.41;49.41;101237.31;5077655;27;45911;-92
2022/05/02 07:45:10;;;;;;;;;46.75;38.25;;;;;14.67;49.52;101266.22;5077466;27;45400;-90
2022/05/02 07:47:37;;;;;;;;;48.00;40.00;;;;;14.42;49.36;101210.00;5077118;27;45493;-87
2022/05/02 07:50:05;;;;;;;;;46.25;38.75;;;;;14.44;49.24;101202.13;5076185;27;45972;-92
2022/05/02 07:52:33;;;;;;;;;46.50;39.25;;;;;14.57;49.21;101203.34;5076796;27;45454;-88
2022/05/02 07:55:00;;;;;;;;;48.00;38.00;;;;;14.98;49.39;101259.09;5076867;27;45295;-92
2022/05/02 07:57:31;;;;;;;;;47.00;38.00;;;;;14.86;49.55;101212.91;5076875;27;45460;-93
2022/05/02 07:59:59;;;;;;;;;47.00;38.00;;;;;14.95;49.04;101207.84;5077058;27;46260;-93
2022/05/02 08:02:24;;;;;;;;;49.25;39.50;;;;;15.46;48.80;101275.25;5076678;27;45727;-90
2022/05/02 08:04:52;;;;;;;;;49.25;40.75;;;;;14.99;48.07;101174.41;5076461;27;45575;-76
2022/05/02 08:07:34;;;;;;;;;49.25;40.50;;;;;15.62;47.97;101272.09;5075797;27;45523;-78
2022/05/02 08:10:35;;;;;;;;;48.00;40.00;;;;;15.73;47.93;101280.31;5090635;27;46911;-78
2022/05/02 08:13:16;;;;;;;;;47.50;40.50;;;;;15.78;47.51;101275.13;5075353;27;45355;-87
2022/05/02 08:15:54;;;;;;;;;47.75;38.75;;;;;15.82;47.61;101269.94;5076644;28;45612;-76
2022/05/02 08:18:50;;;;;;;;;41.75;36.00;;;;;15.87;47.08;101272.69;5076375;27;45463;-90
2022/05/02 08:21:20;;;;;;;;;47.50;37.75;;;;;15.33;47.21;101175.19;5075839;28;46349;-89
2022/05/02 08:27:16;;;;;;;;;48.75;41.50;;;;;15.87;47.15;101275.31;5074845;28;45367;-88
2022/05/02 08:30:04;;;;;;;;;48.00;39.50;;;;;15.85;47.50;101271.72;5074572;28;45685;-87
2022/05/02 08:32:56;;;;;;;;;45.50;38.75;;;;;15.89;47.52;101277.13;5075718;27;46472;-88
2022/05/02 08:35:44;;;;;;;;;51.25;42.75;;;;;15.92;47.14;101269.25;5075644;27;45277;-88
2022/05/02 08:38:40;;;;;;;;;51.00;41.50;;;;;15.94;47.08;101264.88;5076041;27;45408;-89
2022/05/02 08:41:08;;;;;;;;;50.50;41.00;;;;;16.02;47.37;101266.81;5076296;27;45386;-89
2022/05/02 08:43:58;;;;;;;;;52.00;42.00;;;;;16.06;46.68;101265.97;5076106;27;45417;-87
2022/05/02 08:46:45;;;;;;;;;50.00;41.25;;;;;16.11;46.37;101269.66;5076761;27;45683;-90
2022/05/02 08:49:38;;;;;;;;;50.00;42.00;;;;;16.17;46.56;101261.81;5074187;27;45551;-87
2022/05/02 08:52:22;;;;;;;;;51.00;42.25;;;;;16.25;46.54;101263.75;5075619;28;45299;-87
2022/05/02 08:55:20;;;;;;;;;51.50;41.25;;;;;16.33;46.41;101269.19;5075642;28;46315;-88
2022/05/02 08:58:01;;;;;;;;;51.25;42.25;;;;;16.32;46.42;101242.66;5075890;27;45361;-90
2022/05/02 09:00:48;;;;;;;;;53.50;42.75;;;;;16.46;45.84;101262.38;5076028;27;45383;-87
2022/05/02 09:03:50;;;;;;;;;49.00;40.50;;;;;16.51;46.03;101264.25;5076208;28;45555;-92
2022/05/02 09:06:55;;;;;;;;;49.75;42.50;;;;;16.12;45.99;101181.25;5075067;27;46271;-87
2022/05/02 09:09:45;;;;;;;;;55.00;43.00;;;;;16.65;45.87;101266.22;5075332;28;45738;-92
2022/05/02 09:12:43;;;;;;;;;53.25;43.00;;;;;16.70;45.63;101257.53;5074365;27;45499;-90
2022/05/02 09:15:23;;;;;;;;;51.00;41.25;;;;;16.68;46.05;101240.66;5065348;27;45416;-90
2022/05/02 09:18:09;;;;;;;;;52.75;43.75;;;;;16.82;45.38;101263.94;5075381;27;45394;-88
2022/05/02 09:20:52;;;;;;;;;52.25;42.75;;;;;16.44;45.28;101197.75;5074875;27;45417;-89
2022/05/02 09:23:30;;;;;;;;;53.00;43.25;;;;;16.85;45.20;101258.69;5075607;27;45436;-89
2022/05/02 09:26:14;;;;;;;;;52.00;42.00;;;;;16.90;45.31;101257.91;5075718;27;45499;-89
2022/05/02 09:28:39;;;;;;;;;53.00;43.00;;;;;16.97;45.23;101256.22;5075148;27;46379;-90
2022/05/02 09:31:17;;;;;;;;;53.67;42.33;;;;;17.05;45.44;101259.03;5075532;28;45562;-88
2022/05/02 09:34:10;;;;;;;;;51.50;42.00;;;;;16.74;45.22;101190.34;5074547;27;45378;-85
2022/05/02 09:36:54;;;;;;;;;50.50;41.25;;;;;16.89;44.62;101204.75;5070792;28;45771;-87
2022/05/02 09:40:00;;;;;;;;;50.75;42.00;;;;;17.06;45.26;101231.59;5074726;27;45333;-89
2022/05/02 09:42:31;;;;;;;;;49.25;41.25;;;;;17.23;44.98;101249.56;5066066;27;45505;-88
2022/05/02 09:51:25;;;;;;;;;47.75;39.25;;;;;17.34;44.93;101249.75;5074715;28;45468;-90
2022/05/02 09:57:22;;;;;;;;;48.75;41.25;;;;;16.95;44.68;101135.84;5074903;28;45310;-86
2022/05/02 10:01:06;;;;;;;;;50.75;42.50;;;;;17.58;44.97;101238.56;5074876;27;45507;-92
2022/05/02 10:02:46;;;;;;;;;51.25;41.25;;;;;17.11;44.35;101153.75;5074789;27;45423;-88
2022/05/02 10:05:22;;;;;;;;;50.00;41.25;;;;;17.18;44.10;101160.03;5073997;27;45378;-87
2022/05/02 10:08:33;;;;;;;;;47.75;38.50;;;;;17.33;44.72;101180.63;5074946;27;45609;-90
2022/05/02 10:11:04;;;;;;;;;50.00;41.00;;;;;17.71;44.53;101239.63;5074632;27;45408;-88
2022/05/02 10:13:44;;;;;;;;;49.75;40.25;;;;;17.32;44.84;101161.13;5074069;27;45424;-86
2022/05/02 10:16:47;;;;;;;;;46.00;38.25;;;;;17.26;44.54;101142.47;5074254;27;45772;-91
2022/05/02 10:19:41;;;;;;;;;45.25;38.00;;;;;17.86;44.34;101233.66;5074713;27;45505;-87
2022/05/02 10:22:25;;;;;;;;;44.00;37.00;;;;;17.32;44.02;101141.66;5074824;27;45384;-94
2022/05/02 10:25:13;;;;;;;;;50.00;41.00;;;;;17.91;44.33;101226.63;5074560;27;45352;-88
2022/05/02 10:28:04;;;;;;;;;44.50;37.75;;;;;17.99;44.10;101222.28;5072484;27;45893;-91
2022/05/02 10:30:41;;;;;;;;;48.25;39.50;;;;;17.57;44.25;101135.75;5063798;27;45336;-85
2022/05/02 10:33:30;;;;;;;;;47.25;39.25;;;;;17.74;44.29;101142.22;5074193;27;45489;-88
2022/05/02 10:35:58;;;;;;;;;50.00;41.75;;;;;17.96;43.85;101164.63;5073628;28;46058;-88
2022/05/02 10:38:29;;;;;;;;;45.75;38.00;;;;;18.40;44.15;101224.50;5074034;27;45478;-91
2022/05/02 10:41:07;;;;;;;;;46.75;38.75;;;;;18.53;43.95;101215.78;5074040;27;45369;-90
2022/05/02 10:43:35;;;;;;;;;45.00;38.00;;;;;18.57;43.88;101204.28;5073994;27;45289;-91
2022/05/02 10:46:01;;;;;;;;;47.25;40.00;;;;;18.48;43.10;101194.44;5073785;27;46456;-87
2022/05/02 10:48:40;;;;;;;;;42.75;35.50;;;;;18.22;43.60;101137.38;5073802;27;45825;-82
2022/05/02 10:51:28;;;;;;;;;43.25;36.00;;;;;18.48;43.10;101173.16;5077090;27;45263;-84
2022/05/02 10:54:04;;;;;;;;;37.50;33.25;;;;;18.87;42.58;101203.69;5077931;27;45354;-91
2022/05/02 10:56:35;;;;;;;;;44.75;37.75;;;;;19.01;42.47;101211.75;5077343;27;46422;-89
2022/05/02 10:59:03;;;;;;;;;41.75;35.50;;;;;18.66;42.15;101129.78;5077549;27;45912;-92
2022/05/02 11:01:45;;;;;;;;;40.75;33.50;;;;;18.71;42.17;101119.22;5077644;27;45639;-88
2022/05/02 11:04:43;;;;;;;;;38.75;34.75;;;;;19.36;41.92;101200.44;5075463;27;45339;-93
2022/05/02 11:07:21;;;;;;;;;35.50;32.50;;;;;19.43;41.78;101196.94;5077197;27;46263;-89
2022/05/02 11:09:49;;;;;;;;;39.75;34.25;;;;;19.55;42.09;101187.22;5077214;27;45488;-87
2022/05/02 11:12:21;;;;;;;;;43.50;37.00;;;;;19.66;41.64;101179.34;5077353;27;45401;-93
2022/05/02 11:15:23;;;;;;;;;34.50;31.00;;;;;19.77;41.64;101176.69;5077000;27;45511;-89
2022/05/02 11:20:41;;;;;;;;;37.00;33.00;;;;;19.99;41.33;101189.22;5075544;27;46217;-91
2022/05/02 11:21:28;;;;;;;;;41.75;35.75;;;;;20.18;40.58;101181.25;5076599;28;45411;-91
2022/05/02 11:24:06;;;;;;;;;36.25;33.00;;;;;20.16;40.49;101140.34;5077018;27;45386;-90
2022/05/02 11:26:45;;;;;;;;;39.50;35.25;;;;;20.41;40.37;101162.63;5077139;28;45307;-90
2022/05/02 11:29:26;;;;;;;;;37.00;33.50;;;;;20.69;40.66;101175.16;5076951;27;46400;-89
2022/05/02 11:32:04;;;;;;;;;36.50;34.00;;;;;20.36;40.31;101093.22;5077068;27;45406;-91
2022/05/02 11:34:35;;;;;;;;;39.00;33.25;;;;;20.64;39.45;101152.88;5076652;27;45488;-88
2022/05/02 11:37:01;;;;;;;;;36.50;31.75;;;;;20.67;40.41;101165.34;5077100;27;45306;-89
2022/05/02 11:40:00;;;;;;;;;35.25;32.50;;;;;20.66;40.08;101171.56;5076577;28;46137;-90
2022/05/02 11:42:28;;;;;;;;;32.50;29.50;;;;;20.69;40.08;101171.56;5076798;27;45536;-94
2022/05/02 11:45:13;;;;;;;;;34.25;32.50;;;;;20.77;39.61;101161.75;5076339;27;45403;-91
2022/05/02 11:47:44;;;;;;;;;39.00;36.00;;;;;20.85;39.58;101152.84;5075557;27;45637;-90
2022/05/02 11:50:10;;;;;;;;;33.75;32.50;;;;;20.58;39.67;101086.09;5076247;27;46340;-90
2022/05/02 11:52:38;;;;;;;;;37.50;34.25;;;;;21.17;38.75;101164.38;5076534;27;45461;-94
2022/05/02 11:55:06;;;;;;;;;31.50;30.00;;;;;21.20;38.62;101159.94;5077067;27;45554;-92
2022/05/02 11:57:35;;;;;;;;;34.00;32.25;;;;;21.21;38.80;101160.81;5076535;27;45509;-88
2022/05/02 12:00:11;;;;;;;;;30.75;29.75;;;;;21.16;38.54;101157.25;5075870;27;46408;-92